AA4799 / N672AE 7700 Squawk Report (28th of May, 2020)

Aircraft E145 Reg No. N672AE Age N/A
Model ERJ-145 Jet engines 2 First flight 04-04
Registered 19-09-17 Rollout 03-04 Delivered 14-04-04
Construction No. 145794 Line No. N/A Series LR
ADSHEX A8E32B Airline name Envoy Air Owner Piedmont Airlines
Airfield based Philadelphia International~PA~N First tracked N/A

Flight history for N672AE

Route Flight No Date Playback
Charlotte Douglas (CLT) - Richmond Intl (RIC) N/A 2020-07-09 16:10:00
Evansville Regional (EVV) - Charlotte Douglas (CLT) AA4858 2020-07-08 16:22:00
Charlotte Douglas (CLT) - Evansville Regional (EVV) AA4842 2020-07-07 23:48:00
Charlotte Douglas (CLT) - Mc Ghee Tyson (TYS) - Charlotte Douglas (CLT) AA5007 2020-07-07 21:24:00
Mobile Rgnl (MOB) - Charlotte Douglas (CLT) AA4892 2020-07-07 17:24:00
Charlotte Douglas (CLT) - Mobile Rgnl (MOB) AA4830 2020-07-07 01:49:00
Blue Grass (LEX) - Charlotte Douglas (CLT) AA4770 2020-07-06 22:36:00
Charlotte Douglas (CLT) - Blue Grass (LEX) AA4772 2020-07-06 13:55:00
Champaign (CMI) - Charlotte Douglas (CLT) AA4736 2020-07-06 11:41:00
Charlotte Douglas (CLT) - Champaign (CMI) AA4735 2020-07-05 22:16:00
Salisbury Ocean City Wicomico Rgnl (SBY) - Charlotte Douglas (CLT) AA4954 2020-07-05 19:32:00
Charlotte Douglas (CLT) - Salisbury Ocean City Wicomico Rgnl (SBY) AA4920 2020-07-04 01:41:00
Roanoke–Blacksburg Regional (ROA) - Charlotte Douglas (CLT) AA4783 2020-07-03 22:48:00
Salisbury Ocean City Wicomico Rgnl (SBY) - Charlotte Douglas (CLT) AA4954 2020-07-03 19:10:00
Charlotte Douglas (CLT) - Salisbury Ocean City Wicomico Rgnl (SBY) AA4795 2020-07-03 16:39:00
Mobile Rgnl (MOB) - Charlotte Douglas (CLT) AA4986 2020-07-03 14:27:00
Charlotte Douglas (CLT) - Mobile Rgnl (MOB) AA4830 2020-07-03 13:03:00
Charlotte Douglas (CLT) - Pitt–Greenville Airport (PGV) - Charlotte Douglas (CLT) AA4855 2020-07-02 22:47:00
Charlotte Douglas (CLT) - Tri-Cities Regional Airport (TRI) - Charlotte Douglas (CLT) AA4786 2020-07-02 19:14:00
Pitt–Greenville Airport (PGV) - Charlotte Douglas (CLT) AA4812 2020-07-02 16:02:00
Time Lat Lon Altitude Heading Speed Vertical Rate
2020-05-28 15:42:29 GMT 40.202744 -76.787315 425 116 131 -768
2020-05-28 15:42:20 GMT 40.205109 -76.793396 525 116 130 -896
2020-05-28 15:42:10 GMT 40.207855 -76.800415 650 117 129 -896
2020-05-28 15:42:00 GMT 40.210613 -76.807419 725 117 127 -832
2020-05-28 15:41:49 GMT 40.213264 -76.814537 825 116 122 -704
2020-05-28 15:41:39 GMT 40.215820 -76.821289 950 117 121 -704
2020-05-28 15:41:29 GMT 40.218620 -76.828453 1,075 116 119 -704
2020-05-28 15:41:21 GMT 40.220203 -76.832573 1,125 117 118 -576
2020-05-28 15:41:18 GMT 40.220993 -76.834572 1,175 117 118 -832
2020-05-28 15:41:10 GMT 40.222900 -76.839439 1,250 117 119 -640
2020-05-28 15:41:06 GMT 40.224152 -76.842651 1,325 116 118 -896
2020-05-28 15:41:01 GMT 40.225159 -76.845215 1,375 117 119 -640
2020-05-28 15:40:57 GMT 40.226578 -76.848877 1,375 116 124 -192
2020-05-28 15:40:51 GMT 40.228024 -76.852486 1,425 117 122 -448
2020-05-28 15:40:47 GMT 40.228867 -76.854675 1,450 116 118 -832
2020-05-28 15:40:41 GMT 40.230423 -76.858765 1,550 115 118 -768
2020-05-28 15:40:37 GMT 40.231422 -76.861473 1,600 115 120 -576
2020-05-28 15:40:27 GMT 40.234028 -76.868591 1,700 116 121 -640
2020-05-28 15:40:21 GMT 40.235424 -76.872276 1,775 115 119 -704
2020-05-28 15:40:16 GMT 40.236496 -76.875145 1,825 116 118 -832
2020-05-28 15:40:09 GMT 40.238171 -76.879517 1,875 116 119 -704
2020-05-28 15:40:05 GMT 40.239120 -76.881958 1,925 116 120 -192
2020-05-28 15:39:56 GMT 40.241570 -76.888443 2,025 117 122 -768
2020-05-28 15:39:50 GMT 40.243286 -76.892822 2,100 117 122 -768
2020-05-28 15:39:45 GMT 40.244339 -76.895447 2,150 116 123 -576
2020-05-28 15:39:39 GMT 40.245808 -76.899239 2,225 116 118 -576
2020-05-28 15:39:35 GMT 40.246857 -76.901978 2,250 116 117 -576
2020-05-28 15:39:28 GMT 40.248554 -76.906357 2,325 116 117 -512
2020-05-28 15:39:25 GMT 40.249435 -76.908669 2,350 117 120 -64
2020-05-28 15:39:18 GMT 40.250973 -76.912727 2,400 116 132 -512
2020-05-28 15:39:14 GMT 40.252121 -76.915649 2,450 116 133 -704
2020-05-28 15:39:08 GMT 40.253952 -76.920280 2,500 116 143 -512
2020-05-28 15:39:04 GMT 40.255161 -76.923401 2,550 116 148 -704
2020-05-28 15:38:58 GMT 40.257202 -76.928833 2,625 116 156 -960
2020-05-28 15:38:54 GMT 40.258327 -76.931763 2,700 116 161 -896
2020-05-28 15:38:47 GMT 40.260590 -76.937622 2,775 116 172 -576
2020-05-28 15:38:44 GMT 40.262009 -76.941406 2,825 116 177 -640
2020-05-28 15:38:36 GMT 40.264572 -76.948120 2,875 116 186 128
2020-05-28 15:38:32 GMT 40.266056 -76.951988 2,875 116 186 64
2020-05-28 15:38:26 GMT 40.268784 -76.958984 2,875 116 184 64
2020-05-28 15:38:22 GMT 40.269920 -76.961975 2,950 118 216 -1344
2020-05-28 15:38:13 GMT 40.273926 -76.972214 2,875 117 182 64
2020-05-28 15:38:05 GMT 40.276718 -76.978889 2,875 118 188 -192
2020-05-28 15:38:02 GMT 40.278122 -76.982361 2,900 117 192 -192
2020-05-28 15:37:56 GMT 40.280952 -76.989754 2,900 115 201 -192
2020-05-28 15:37:52 GMT 40.282257 -76.993248 2,950 118 216 -1344
2020-05-28 15:37:42 GMT 40.286819 -77.005920 2,975 116 216 -1152
2020-05-28 15:37:34 GMT 40.289703 -77.013367 3,100 119 215 -1344
2020-05-28 15:37:27 GMT 40.296501 -77.027771 3,425 123 213 -1344
2020-05-28 15:37:20 GMT 40.297028 -77.028809 3,450 123 213 -1408
2020-05-28 15:37:13 GMT 40.300598 -77.036255 3,700 115 215 -1088
2020-05-28 15:37:10 GMT 40.302090 -77.039627 3,650 117 214 -1280
2020-05-28 15:37:04 GMT 40.306503 -77.055237 3,925 102 224 -1344
2020-05-28 15:36:58 GMT 40.307209 -77.062035 3,950 98 227 -1216
2020-05-28 15:36:53 GMT 40.307255 -77.062599 4,025 93 231 -1344
2020-05-28 15:36:50 GMT 40.307419 -77.066833 4,100 89 234 -1408
2020-05-28 15:36:39 GMT 40.306278 -77.081451 4,275 77 244 -704
2020-05-28 15:36:34 GMT 40.302200 -77.095947 4,475 59 260 -1216
2020-05-28 15:36:28 GMT 40.297531 -77.104187 4,600 45 269 -1024
2020-05-28 15:36:21 GMT 40.296314 -77.105797 4,625 43 270 -960
2020-05-28 15:36:16 GMT 40.291443 -77.111023 4,900 14 282 -1216
2020-05-28 15:36:10 GMT 40.284447 -77.115974 4,825 22 279 -1280
2020-05-28 15:36:04 GMT 40.269974 -77.119995 5,050 358 284 -1088
2020-05-28 15:35:57 GMT 40.261093 -77.118896 5,200 347 281 -1152
2020-05-28 15:35:50 GMT 40.254639 -77.116394 5,350 331 273 -1024
2020-05-28 15:35:47 GMT 40.254639 -77.116394 5,275 337 277 -960
2020-05-28 15:35:41 GMT 40.248089 -77.111916 5,375 325 270 -1024
2020-05-28 15:35:36 GMT 40.243805 -77.107483 5,450 316 267 -1024
2020-05-28 15:35:30 GMT 40.237892 -77.098122 5,625 301 260 -1344
2020-05-28 15:35:27 GMT 40.236053 -77.094055 5,675 299 260 -1216
2020-05-28 15:35:19 GMT 40.232529 -77.085144 5,800 298 263 -1280
2020-05-28 15:35:16 GMT 40.230515 -77.080078 5,925 298 264 -1280
2020-05-28 15:35:09 GMT 40.226898 -77.070984 6,025 298 264 -1280
2020-05-28 15:35:06 GMT 40.224426 -77.064758 6,125 298 265 -1472
2020-05-28 15:35:03 GMT 40.223053 -77.061340 6,300 298 267 -1600
2020-05-28 15:35:00 GMT 40.220993 -77.056152 6,275 298 267 -1536
2020-05-28 15:34:55 GMT 40.218620 -77.050179 6,375 298 267 -1600
2020-05-28 15:34:47 GMT 40.214172 -77.038940 6,575 298 268 -1600
2020-05-28 15:34:44 GMT 40.211544 -77.032265 6,700 298 268 -1600
2020-05-28 15:34:38 GMT 40.209137 -77.026184 6,900 298 269 -1600
2020-05-28 15:34:32 GMT 40.202591 -77.009399 7,125 297 270 -1728
2020-05-28 15:34:27 GMT 40.200184 -77.003296 7,350 297 270 -1600
2020-05-28 15:34:23 GMT 40.200184 -77.003296 7,250 298 270 -1664
2020-05-28 15:34:15 GMT 40.196228 -76.993103 7,450 298 270 -1600
2020-05-28 15:34:11 GMT 40.192795 -76.984314 7,600 298 270 -1664
2020-05-28 15:34:06 GMT 40.188595 -76.973587 8,000 297 271 -1792
2020-05-28 15:33:58 GMT 40.185616 -76.965973 7,975 297 271 -1792
2020-05-28 15:33:53 GMT 40.180527 -76.952881 8,200 298 270 -1984
2020-05-28 15:33:48 GMT 40.180527 -76.952881 8,250 298 270 -2176
2020-05-28 15:33:45 GMT 40.178585 -76.947929 8,375 297 269 -2112
2020-05-28 15:33:42 GMT 40.176453 -76.942383 8,500 297 268 -1664
2020-05-28 15:33:37 GMT 40.172997 -76.933388 8,675 297 269 -2112
2020-05-28 15:33:31 GMT 40.170765 -76.927582 8,825 297 269 -2112
2020-05-28 15:32:26 GMT 40.122349 -76.828957 11,225 306 290 -2304
2020-05-28 15:32:21 GMT 40.121246 -76.826965 11,375 304 289 -2112
2020-05-28 15:32:13 GMT 40.116257 -76.817078 11,575 297 287 -2304
2020-05-28 15:32:10 GMT 40.111691 -76.800613 11,725 290 284 -2368
2020-05-28 15:32:04 GMT 40.111691 -76.800613 11,900 278 281 -2304
2020-05-28 15:32:00 GMT 40.111130 -76.795044 12,300 261 278 -2240
2020-05-28 15:31:53 GMT 40.111496 -76.783447 12,325 261 278 -2240
2020-05-28 15:31:50 GMT 40.112526 -76.777267 12,450 252 276 -2240
2020-05-28 15:31:41 GMT 40.117630 -76.763123 12,800 238 275 -2304
2020-05-28 15:31:37 GMT 40.119781 -76.759399 12,850 233 275 -2304
2020-05-28 15:31:33 GMT 40.123840 -76.753922 13,075 221 275 -2304
2020-05-28 15:31:27 GMT 40.134686 -76.745117 13,475 202 278 -2304
2020-05-28 15:31:22 GMT 40.135391 -76.744751 13,750 188 282 -2304
2020-05-28 15:31:19 GMT 40.140087 -76.742874 13,650 190 282 -2304
2020-05-28 15:31:11 GMT 40.150223 -76.741394 13,900 178 286 -2240
2020-05-28 15:31:08 GMT 40.153427 -76.741577 14,025 172 288 -2240
2020-05-28 15:31:02 GMT 40.162354 -76.744080 14,275 161 294 -2240
2020-05-28 15:30:59 GMT 40.165176 -76.745430 14,375 156 297 -2304
2020-05-28 15:30:55 GMT 40.171371 -76.749451 14,550 149 301 -2304
2020-05-28 15:30:51 GMT 40.174667 -76.752319 14,675 142 307 -2304
2020-05-28 15:30:47 GMT 40.179062 -76.757019 14,775 138 309 -2240
2020-05-28 15:30:44 GMT 40.182358 -76.761292 14,925 128 316 -2240
2020-05-28 15:30:41 GMT 40.185799 -76.766968 15,075 125 318 -2240
2020-05-28 15:30:38 GMT 40.188263 -76.771790 15,200 120 323 -2240
2020-05-28 15:30:34 GMT 40.195633 -76.801392 15,400 112 330 -2176
2020-05-28 15:30:27 GMT 40.195633 -76.801392 15,775 95 343 -2304
2020-05-28 15:30:19 GMT 40.195995 -76.806732 15,875 92 345 -2304
2020-05-28 15:30:15 GMT 40.196274 -76.815552 16,025 91 349 -2240
2020-05-28 15:30:09 GMT 40.196552 -76.827766 16,250 91 352 -2112
2020-05-28 15:30:05 GMT 40.196835 -76.838005 16,625 92 360 -2240
2020-05-28 15:29:58 GMT 40.197437 -76.859726 17,100 91 367 -2048
2020-05-28 15:29:54 GMT 40.197437 -76.859726 17,100 91 367 -2048
2020-05-28 15:29:48 GMT 40.197765 -76.872963 16,975 91 370 -1600
2020-05-28 15:29:45 GMT 40.197948 -76.881073 17,075 91 374 -1408
2020-05-28 15:29:38 GMT 40.198334 -76.896118 17,275 92 381 -3584
2020-05-28 15:29:35 GMT 40.198563 -76.902527 17,800 92 384 -2944
2020-05-28 15:29:28 GMT 40.199394 -76.926147 17,900 92 384 -3008
2020-05-28 15:29:25 GMT 40.199394 -76.926147 18,025 91 385 -3008
2020-05-28 15:29:16 GMT 40.199764 -76.947556 18,400 90 386 -3072
2020-05-28 15:29:13 GMT 40.199814 -76.953110 18,475 90 387 -3008
2020-05-28 15:29:07 GMT 40.199753 -76.970459 18,900 89 388 -2944
2020-05-28 15:29:03 GMT 40.199253 -76.991501 19,300 87 388 -2944
2020-05-28 15:28:57 GMT 40.199253 -76.991501 19,375 86 388 -2944
2020-05-28 15:28:54 GMT 40.198975 -76.998055 19,525 86 388 -2880
2020-05-28 15:28:51 GMT 40.198650 -77.004608 19,625 84 389 -3008
2020-05-28 15:28:47 GMT 40.197765 -77.016785 19,975 83 390 -2880
2020-05-28 15:28:43 GMT 40.196972 -77.025269 20,025 82 391 -2880
2020-05-28 15:28:39 GMT 40.195862 -77.035095 20,250 80 392 -2880
2020-05-28 15:28:36 GMT 40.194855 -77.042542 20,375 79 392 -2944
2020-05-28 15:28:32 GMT 40.193207 -77.052734 20,625 76 394 -2816
2020-05-28 15:28:29 GMT 40.192455 -77.056915 20,750 74 394 -2816
2020-05-28 15:28:25 GMT 40.190826 -77.064758 20,850 73 396 -2816
2020-05-28 15:28:22 GMT 40.188400 -77.074768 21,050 70 397 -2880
2020-05-28 15:28:18 GMT 40.186844 -77.080200 21,175 68 398 -2880
2020-05-28 15:28:14 GMT 40.183472 -77.090378 21,400 64 400 -2944
2020-05-28 15:28:11 GMT 40.180939 -77.096802 21,525 59 403 -2944
2020-05-28 15:28:08 GMT 40.178375 -77.102722 21,600 56 405 -2752
2020-05-28 15:28:05 GMT 40.174488 -77.110542 21,875 54 406 -2624
2020-05-28 15:28:01 GMT 40.165176 -77.126022 22,175 46 411 -2112
2020-05-28 15:27:53 GMT 40.159405 -77.133949 22,325 43 413 -2048
2020-05-28 15:27:50 GMT 40.154663 -77.139771 22,450 41 416 -1984
2020-05-28 15:27:46 GMT 40.151184 -77.143738 22,700 33 421 -1984
2020-05-28 15:27:42 GMT 40.144455 -77.150574 22,875 31 422 -1984
2020-05-28 15:27:38 GMT 40.129715 -77.162170 22,900 27 425 -1920
2020-05-28 15:27:34 GMT 40.129715 -77.162170 22,950 26 426 -1920
2020-05-28 15:27:31 GMT 40.125412 -77.164734 23,200 17 431 -2048
2020-05-28 15:27:27 GMT 40.114197 -77.170105 24,000 319 422 -128
2020-05-28 15:27:21 GMT 40.106056 -77.172836 23,350 10 433 -1920
2020-05-28 15:27:17 GMT 40.099773 -77.174339 23,400 8 434 -1856
2020-05-28 15:27:13 GMT 40.090576 -77.175720 23,625 0 438 -1792
2020-05-28 15:27:10 GMT 40.085724 -77.176025 24,025 1 437 -1792
2020-05-28 15:27:07 GMT 40.070724 -77.175209 23,925 353 439 -1408
2020-05-28 15:27:03 GMT 40.070724 -77.175209 23,875 354 438 -1792
2020-05-28 15:27:00 GMT 40.066315 -77.174500 24,000 351 440 -1088
2020-05-28 15:26:57 GMT 40.056293 -77.172089 24,000 315 420 -128
2020-05-28 15:26:52 GMT 40.049171 -77.169716 24,000 339 435 256
2020-05-28 15:26:49 GMT 40.041046 -77.166321 24,000 342 437 192
2020-05-28 15:26:46 GMT 40.035828 -77.163574 24,000 340 435 192
2020-05-28 15:26:43 GMT 40.025379 -77.156982 24,000 333 432 128
2020-05-28 15:26:40 GMT 40.025379 -77.156982 23,975 331 430 64
2020-05-28 15:26:32 GMT 40.008224 -77.141541 24,000 321 423 -64
2020-05-28 15:26:29 GMT 40.008224 -77.141541 24,000 319 422 -64
2020-05-28 15:26:25 GMT 39.999252 -77.130310 24,000 313 418 -192
2020-05-28 15:26:19 GMT 39.993542 -77.121468 24,025 308 415 -128
2020-05-28 15:26:14 GMT 39.989319 -77.113770 24,025 297 407 192
2020-05-28 15:26:09 GMT 39.983856 -77.101364 24,025 296 407 192
2020-05-28 15:26:06 GMT 39.982182 -77.096992 24,000 293 404 256
2020-05-28 15:26:01 GMT 39.978596 -77.085197 24,000 286 401 0
2020-05-28 15:25:58 GMT 39.977051 -77.078247 24,000 284 399 -256
2020-05-28 15:25:55 GMT 39.976044 -77.072632 24,000 283 399 -256
2020-05-28 15:25:52 GMT 39.974808 -77.063232 24,000 280 396 -128
2020-05-28 15:25:48 GMT 39.973892 -77.053833 24,025 277 391 64
2020-05-28 15:25:44 GMT 39.972916 -77.043121 24,000 277 389 128
2020-05-28 15:25:40 GMT 39.972172 -77.034698 24,000 277 389 192
2020-05-28 15:25:37 GMT 39.971695 -77.029602 24,000 277 388 192
2020-05-28 15:25:34 GMT 39.971054 -77.022652 23,975 277 386 -64
2020-05-28 15:25:30 GMT 39.970219 -77.013351 23,975 277 387 64
2020-05-28 15:25:27 GMT 39.969521 -77.005981 23,975 277 386 0
2020-05-28 15:25:24 GMT 39.969086 -77.000916 23,975 277 384 320
2020-05-28 15:25:20 GMT 39.967937 -76.988503 23,950 277 383 704
2020-05-28 15:25:17 GMT 39.967300 -76.981628 23,900 277 382 896
2020-05-28 15:25:13 GMT 39.966679 -76.974770 23,725 277 382 960
2020-05-28 15:25:10 GMT 39.965889 -76.966530 23,800 277 382 960
2020-05-28 15:25:07 GMT 39.965378 -76.960571 23,725 277 382 960
2020-05-28 15:25:04 GMT 39.964676 -76.952797 23,700 277 381 1152
2020-05-28 15:25:00 GMT 39.963638 -76.941406 23,600 277 381 1152
2020-05-28 15:24:56 GMT 39.963047 -76.934570 23,550 277 381 1152
2020-05-28 15:24:53 GMT 39.962490 -76.928207 23,525 277 381 1152
2020-05-28 15:24:48 GMT 39.960674 -76.908165 23,375 277 381 1088
2020-05-28 15:24:45 GMT 39.960674 -76.908165 23,350 277 381 1024
2020-05-28 15:24:42 GMT 39.960205 -76.903137 23,225 277 381 1024
2020-05-28 15:24:39 GMT 39.959702 -76.897705 23,225 277 381 1024
2020-05-28 15:24:36 GMT 39.958374 -76.883118 23,200 277 381 1024
2020-05-28 15:24:33 GMT 39.958374 -76.883118 23,150 277 380 1024
2020-05-28 15:24:27 GMT 39.956436 -76.862602 23,000 277 380 1024
2020-05-28 15:24:19 GMT 39.954620 -76.843079 22,850 278 380 1024
2020-05-28 15:24:16 GMT 39.954620 -76.843079 22,800 278 380 1024
2020-05-28 15:24:12 GMT 39.953876 -76.835320 22,800 278 380 1024
2020-05-28 15:24:09 GMT 39.952972 -76.825806 22,725 278 381 960
2020-05-28 15:24:06 GMT 39.952423 -76.820374 22,700 278 381 1024
2020-05-28 15:24:03 GMT 39.951965 -76.815796 22,475 277 379 960
2020-05-28 15:23:58 GMT 39.950806 -76.803551 22,575 277 379 960
2020-05-28 15:23:54 GMT 39.949688 -76.791748 22,475 277 379 960
2020-05-28 15:23:50 GMT 39.948429 -76.777206 22,400 277 380 1024
2020-05-28 15:23:47 GMT 39.948429 -76.777206 22,375 277 380 1088
2020-05-28 15:23:43 GMT 39.947731 -76.769028 22,325 277 380 1088
2020-05-28 15:23:35 GMT 39.945969 -76.749512 22,175 277 380 1088
2020-05-28 15:23:32 GMT 39.945648 -76.745850 22,025 277 379 1024
2020-05-28 15:23:27 GMT 39.944412 -76.732239 22,025 277 379 1024
2020-05-28 15:23:24 GMT 39.943726 -76.724976 21,975 277 379 1024
2020-05-28 15:23:16 GMT 39.942032 -76.706848 21,850 277 379 1024
2020-05-28 15:23:13 GMT 39.941345 -76.699646 21,825 278 378 960
2020-05-28 15:23:05 GMT 39.939789 -76.683350 21,650 276 370 1024
2020-05-28 15:23:02 GMT 39.939121 -76.676582 21,500 277 378 1088
2020-05-28 15:22:57 GMT 39.937912 -76.663452 21,525 277 378 1088
2020-05-28 15:22:54 GMT 39.937363 -76.658020 21,475 277 378 1088
2020-05-28 15:22:51 GMT 39.936932 -76.653046 21,425 277 378 1088
2020-05-28 15:22:46 GMT 39.935669 -76.639954 21,325 278 377 1024
2020-05-28 15:22:42 GMT 39.933746 -76.620117 20,900 278 375 896
2020-05-28 15:22:34 GMT 39.933060 -76.612915 21,125 278 377 960
2020-05-28 15:22:31 GMT 39.932415 -76.606102 21,100 278 377 1024
2020-05-28 15:22:26 GMT 39.931274 -76.593994 21,000 278 376 960
2020-05-28 15:22:23 GMT 39.930496 -76.585876 20,875 278 376 960
2020-05-28 15:22:20 GMT 39.930229 -76.582695 20,925 277 374 1088
2020-05-28 15:22:17 GMT 39.929489 -76.575073 20,800 278 375 960
2020-05-28 15:22:14 GMT 39.928986 -76.569702 20,800 276 370 1024
2020-05-28 15:22:11 GMT 39.928272 -76.562096 20,775 277 374 1088
2020-05-28 15:22:08 GMT 39.927383 -76.552673 20,700 277 374 1024
2020-05-28 15:22:04 GMT 39.926880 -76.547302 20,650 277 374 1088
2020-05-28 15:22:01 GMT 39.926147 -76.539246 20,550 277 374 1088
2020-05-28 15:21:58 GMT 39.925434 -76.531639 20,475 277 373 1024
2020-05-28 15:21:54 GMT 39.924038 -76.516464 20,425 277 373 960
2020-05-28 15:21:51 GMT 39.924038 -76.516464 20,400 277 373 1024
2020-05-28 15:21:47 GMT 39.923264 -76.507996 20,300 277 372 1024
2020-05-28 15:21:43 GMT 39.922485 -76.499115 20,275 276 370 1024
2020-05-28 15:21:40 GMT 39.922073 -76.493744 20,225 277 371 1088
2020-05-28 15:21:37 GMT 39.921478 -76.486206 20,125 276 370 1024
2020-05-28 15:21:34 GMT 39.920883 -76.478699 20,100 274 364 1024
2020-05-28 15:21:31 GMT 39.920315 -76.470276 20,050 275 369 1024
2020-05-28 15:21:28 GMT 39.919922 -76.463654 20,000 274 367 1024
2020-05-28 15:21:25 GMT 39.919708 -76.459656 19,975 274 367 1024
2020-05-28 15:21:20 GMT 39.919147 -76.448181 19,875 274 366 960
2020-05-28 15:21:17 GMT 39.918495 -76.433228 19,650 274 365 1088
2020-05-28 15:21:14 GMT 39.918495 -76.433228 19,750 274 365 1088
2020-05-28 15:21:10 GMT 39.917751 -76.415649 19,675 274 365 1088
2020-05-28 15:21:06 GMT 39.917542 -76.410866 19,600 274 364 1088
2020-05-28 15:21:03 GMT 39.917175 -76.402985 19,550 274 364 1024
2020-05-28 15:21:00 GMT 39.917175 -76.402985 19,525 274 364 1088
2020-05-28 15:20:56 GMT 39.916866 -76.395569 19,450 274 363 960
2020-05-28 15:20:52 GMT 39.916489 -76.387283 19,325 274 363 1088
2020-05-28 15:20:49 GMT 39.916077 -76.379402 19,350 274 363 1088
2020-05-28 15:20:46 GMT 39.915657 -76.371155 18,575 274 364 1088
2020-05-28 15:20:42 GMT 39.915298 -76.363754 19,200 274 362 1088
2020-05-28 15:20:38 GMT 39.914959 -76.357239 19,150 274 361 1024
2020-05-28 15:20:35 GMT 39.914494 -76.348511 19,075 274 361 1088
2020-05-28 15:20:32 GMT 39.914261 -76.344177 19,025 275 362 1088
2020-05-28 15:20:29 GMT 39.913788 -76.335098 18,975 274 361 1024
2020-05-28 15:20:22 GMT 39.913010 -76.321182 18,725 275 365 1088
2020-05-28 15:20:17 GMT 39.912277 -76.308052 18,750 275 365 1088
2020-05-28 15:20:12 GMT 39.911682 -76.297539 18,650 275 364 1088
2020-05-28 15:20:09 GMT 39.911327 -76.291016 18,600 274 364 1152
2020-05-28 15:20:05 GMT 39.910904 -76.282677 18,525 274 364 1088
2020-05-28 15:20:02 GMT 39.910629 -76.276978 18,300 274 364 1088
2020-05-28 15:19:59 GMT 39.910259 -76.269104 18,400 274 364 1152
2020-05-28 15:19:56 GMT 39.910072 -76.264771 18,400 274 364 1152
2020-05-28 15:19:53 GMT 39.909794 -76.258606 18,325 274 363 1088
2020-05-28 15:19:50 GMT 39.909576 -76.252937 18,275 273 363 1088
2020-05-28 15:19:46 GMT 39.909096 -76.241150 18,175 273 363 1024
2020-05-28 15:19:41 GMT 39.908676 -76.231567 18,075 274 362 1024
2020-05-28 15:19:37 GMT 39.908249 -76.221535 18,025 274 362 896
2020-05-28 15:19:34 GMT 39.907928 -76.215027 17,975 274 362 896
2020-05-28 15:19:31 GMT 39.907700 -76.209351 17,950 273 361 1088
2020-05-28 15:19:26 GMT 39.907372 -76.199402 17,750 271 360 1024
2020-05-28 15:19:23 GMT 39.907185 -76.191589 17,800 271 360 1088
2020-05-28 15:19:19 GMT 39.907104 -76.185112 17,750 270 360 1024
2020-05-28 15:19:15 GMT 39.907230 -76.174316 17,650 269 358 1024
2020-05-28 15:19:10 GMT 39.907516 -76.163559 17,575 268 358 1024
2020-05-28 15:19:05 GMT 39.907791 -76.154480 17,500 268 357 1024
2020-05-28 15:19:02 GMT 39.908020 -76.147194 17,425 268 357 1024
2020-05-28 15:18:59 GMT 39.908211 -76.140747 17,375 268 356 1024
2020-05-28 15:18:55 GMT 39.908489 -76.131348 17,300 269 355 1024
2020-05-28 15:18:52 GMT 39.908707 -76.123253 17,250 269 355 1024
2020-05-28 15:18:49 GMT 39.908859 -76.117676 17,125 269 354 960
2020-05-28 15:18:44 GMT 39.909073 -76.108742 17,125 269 355 960
2020-05-28 15:18:40 GMT 39.909374 -76.098083 17,050 269 354 1152
2020-05-28 15:18:35 GMT 39.909653 -76.085266 16,950 269 353 960
2020-05-28 15:18:32 GMT 39.909851 -76.076385 16,875 269 353 1024
2020-05-28 15:18:28 GMT 39.909851 -76.076385 16,825 269 353 1088
2020-05-28 15:18:25 GMT 39.910034 -76.067902 16,800 269 352 1024
2020-05-28 15:18:22 GMT 39.910126 -76.062828 16,775 269 352 1088
2020-05-28 15:18:19 GMT 39.910305 -76.055603 16,725 269 352 1024
2020-05-28 15:18:15 GMT 39.910538 -76.045471 16,625 269 351 1024
2020-05-28 15:18:12 GMT 39.910629 -76.041260 16,575 269 350 960
2020-05-28 15:18:09 GMT 39.910995 -76.026588 16,450 269 349 1088
2020-05-28 15:18:03 GMT 39.911095 -76.021118 16,400 269 348 1088
2020-05-28 15:18:00 GMT 39.911236 -76.015259 16,375 269 348 960
2020-05-28 15:17:57 GMT 39.911373 -76.010254 16,325 269 347 960
2020-05-28 15:17:54 GMT 39.911610 -76.001038 16,250 269 347 960
2020-05-28 15:17:51 GMT 39.911980 -75.984436 16,175 269 346 1024
2020-05-28 15:17:46 GMT 39.911980 -75.984436 16,125 269 345 1088
2020-05-28 15:17:43 GMT 39.912048 -75.978996 16,075 269 344 1088
2020-05-28 15:17:39 GMT 39.912231 -75.970757 16,000 269 344 1024
2020-05-28 15:17:34 GMT 39.912399 -75.960449 15,900 269 342 1088
2020-05-28 15:17:31 GMT 39.912552 -75.954277 15,875 269 342 1152
2020-05-28 15:17:27 GMT 39.912678 -75.947266 15,800 269 341 1024
2020-05-28 15:17:22 GMT 39.912872 -75.937080 15,725 269 340 1024
2020-05-28 15:17:18 GMT 39.913055 -75.928902 15,550 269 338 1024
2020-05-28 15:17:13 GMT 39.913330 -75.917908 15,550 269 337 1088
2020-05-28 15:17:10 GMT 39.913422 -75.913086 15,500 269 336 1024
2020-05-28 15:17:07 GMT 39.913563 -75.908203 15,400 269 335 1024
2020-05-28 15:17:03 GMT 39.913788 -75.898155 15,375 269 335 1088
2020-05-28 15:17:00 GMT 39.913891 -75.892883 15,250 269 333 1024
2020-05-28 15:16:57 GMT 39.914028 -75.886475 15,275 269 333 1088
2020-05-28 15:16:52 GMT 39.914261 -75.876892 15,150 269 332 1088
2020-05-28 15:16:49 GMT 39.914520 -75.862923 15,125 269 331 1024
2020-05-28 15:16:46 GMT 39.914749 -75.852592 14,950 269 328 1088
2020-05-28 15:16:41 GMT 39.914749 -75.852592 14,975 269 328 960
2020-05-28 15:16:36 GMT 39.914959 -75.843567 14,900 269 327 960
2020-05-28 15:16:32 GMT 39.915161 -75.834503 14,825 269 325 1024
2020-05-28 15:16:29 GMT 39.915237 -75.830994 14,725 269 324 1088
2020-05-28 15:16:26 GMT 39.915344 -75.825127 14,700 269 324 1088
2020-05-28 15:16:21 GMT 39.915527 -75.811935 14,625 270 322 1088
2020-05-28 15:16:16 GMT 39.915611 -75.804565 14,475 269 319 1088
2020-05-28 15:16:11 GMT 39.915703 -75.796143 14,475 269 318 960
2020-05-28 15:16:07 GMT 39.915848 -75.786560 14,375 269 317 1024
2020-05-28 15:16:02 GMT 39.915985 -75.777832 14,275 270 315 1088
2020-05-28 15:15:59 GMT 39.916077 -75.767632 14,200 270 313 1216
2020-05-28 15:15:56 GMT 39.916168 -75.760109 14,125 270 311 1280
2020-05-28 15:15:52 GMT 39.916168 -75.760109 14,100 270 311 1280
2020-05-28 15:15:49 GMT 39.916264 -75.753723 14,050 270 310 1216
2020-05-28 15:15:46 GMT 39.916309 -75.750000 14,000 269 309 1280
2020-05-28 15:15:43 GMT 39.916397 -75.744461 13,875 269 308 1280
2020-05-28 15:15:40 GMT 39.916489 -75.737778 13,875 269 307 1280
2020-05-28 15:15:37 GMT 39.916626 -75.731148 13,775 269 304 1408
2020-05-28 15:15:34 GMT 39.916672 -75.727509 13,725 269 304 1280
2020-05-28 15:15:31 GMT 39.916855 -75.719444 13,625 269 303 1344
2020-05-28 15:15:25 GMT 39.917103 -75.710388 13,525 268 301 1536
2020-05-28 15:15:18 GMT 39.917542 -75.696999 13,400 268 300 1600
2020-05-28 15:15:15 GMT 39.917801 -75.691589 13,250 266 298 1664
2020-05-28 15:15:12 GMT 39.917984 -75.687988 13,200 265 298 1728
2020-05-28 15:15:09 GMT 39.918365 -75.681892 13,100 265 298 1664
2020-05-28 15:15:06 GMT 39.918961 -75.674782 12,975 263 297 1664
2020-05-28 15:15:02 GMT 39.919373 -75.670547 12,925 261 296 1664
2020-05-28 15:14:58 GMT 39.920425 -75.662064 12,800 260 295 1536
2020-05-28 15:14:55 GMT 39.921616 -75.653709 12,725 260 295 1600
2020-05-28 15:14:52 GMT 39.921757 -75.652649 12,650 260 295 1600
2020-05-28 15:14:47 GMT 39.923401 -75.641113 12,500 260 294 1600
2020-05-28 15:14:43 GMT 39.924225 -75.635185 12,400 260 294 1600
2020-05-28 15:14:38 GMT 39.925434 -75.626076 12,250 261 294 1600
2020-05-28 15:14:35 GMT 39.925991 -75.621895 12,200 261 294 1600
2020-05-28 15:14:31 GMT 39.927483 -75.610718 11,925 260 286 1664
2020-05-28 15:14:27 GMT 39.927948 -75.607285 11,975 261 293 1408
2020-05-28 15:14:24 GMT 39.928619 -75.602051 11,900 260 293 1280
2020-05-28 15:14:18 GMT 39.930229 -75.590553 11,800 260 294 640
2020-05-28 15:14:15 GMT 39.930862 -75.586060 11,775 260 293 320
2020-05-28 15:14:12 GMT 39.931767 -75.580193 11,750 260 293 192
2020-05-28 15:14:07 GMT 39.932789 -75.573265 11,750 259 291 64
2020-05-28 15:14:04 GMT 39.933655 -75.567444 11,750 260 289 128
2020-05-28 15:14:00 GMT 39.934616 -75.561279 11,725 260 288 192
2020-05-28 15:13:57 GMT 39.935486 -75.555176 11,725 260 288 192
2020-05-28 15:13:53 GMT 39.936142 -75.550728 11,550 259 287 832
2020-05-28 15:13:50 GMT 39.936905 -75.545654 11,650 259 287 896
2020-05-28 15:13:47 GMT 39.938190 -75.537186 11,600 259 287 896
2020-05-28 15:13:44 GMT 39.938644 -75.534119 11,575 260 287 896
2020-05-28 15:13:40 GMT 39.939835 -75.526123 11,475 260 286 1152
2020-05-28 15:13:36 GMT 39.940563 -75.521080 11,475 260 287 1216
2020-05-28 15:13:33 GMT 39.941437 -75.515137 11,325 260 287 1152
2020-05-28 15:13:30 GMT 39.942101 -75.510719 11,300 260 287 1088
2020-05-28 15:13:27 GMT 39.943039 -75.504272 11,250 259 287 896
2020-05-28 15:13:24 GMT 39.943729 -75.499924 11,200 259 286 896
2020-05-28 15:13:20 GMT 39.944706 -75.493118 11,150 260 286 1088
2020-05-28 15:13:17 GMT 39.946339 -75.486519 10,300 260 279 2112
2020-05-28 15:13:14 GMT 39.947659 -75.476578 10,300 260 279 2112
2020-05-28 15:13:11 GMT 39.947659 -75.476578 10,300 260 279 2112
2020-05-28 15:13:08 GMT 39.948330 -75.471611 10,300 260 279 2112
2020-05-28 15:13:05 GMT 39.948990 -75.466652 10,300 260 279 2112
2020-05-28 15:13:02 GMT 39.949650 -75.461678 10,300 260 279 2112
2020-05-28 15:12:59 GMT 39.950321 -75.456711 10,300 260 279 2112
2020-05-28 15:12:56 GMT 39.950981 -75.451736 10,300 260 279 2016
2020-05-28 15:12:53 GMT 39.951641 -75.446777 10,300 260 279 2016
2020-05-28 15:12:50 GMT 39.952301 -75.441811 10,300 260 279 2016
2020-05-28 15:12:47 GMT 39.953678 -75.431801 10,100 260 278 2016
2020-05-28 15:12:44 GMT 39.954391 -75.426758 10,100 260 278 2016
2020-05-28 15:12:41 GMT 39.954391 -75.426758 10,000 260 277 2016
2020-05-28 15:12:38 GMT 39.955029 -75.421829 10,000 260 277 2016
2020-05-28 15:12:35 GMT 39.955681 -75.416832 9,700 260 277 2016
2020-05-28 15:12:32 GMT 39.956291 -75.411858 9,700 260 276 2016
2020-05-28 15:12:29 GMT 39.956940 -75.406952 9,700 260 276 2016
2020-05-28 15:12:26 GMT 39.957569 -75.401871 9,400 259 274 2016
2020-05-28 15:12:23 GMT 39.958179 -75.396927 9,400 259 273 2016
2020-05-28 15:12:20 GMT 39.958858 -75.392090 9,400 259 273 2016
2020-05-28 15:12:17 GMT 39.959579 -75.387161 9,200 259 272 2016
2020-05-28 15:12:14 GMT 39.960918 -75.377487 9,000 259 271 2016
2020-05-28 15:12:11 GMT 39.960918 -75.377487 9,000 259 271 2016
2020-05-28 15:12:07 GMT 39.962570 -75.365898 8,900 259 266 2016
2020-05-28 15:12:04 GMT 39.962570 -75.365898 8,900 259 266 2016
2020-05-28 15:12:01 GMT 39.963261 -75.361191 8,900 259 266 2016
2020-05-28 15:11:58 GMT 39.963902 -75.356232 8,800 258 263 2016
2020-05-28 15:11:55 GMT 39.964581 -75.351479 8,800 258 263 2016
2020-05-28 15:11:52 GMT 39.965290 -75.346848 8,300 258 261 1664
2020-05-28 15:11:49 GMT 39.966049 -75.342171 8,300 258 261 1664
2020-05-28 15:11:46 GMT 39.966702 -75.337418 8,300 258 259 1664
2020-05-28 15:11:43 GMT 39.967419 -75.332832 8,300 258 259 1664
2020-05-28 15:11:40 GMT 39.968121 -75.328133 8,100 258 258 1664
2020-05-28 15:11:37 GMT 39.968880 -75.323463 8,000 258 257 1664
2020-05-28 15:11:34 GMT 39.969601 -75.318916 8,000 258 257 1664
2020-05-28 15:11:31 GMT 39.970249 -75.314209 7,800 257 255 1664
2020-05-28 15:11:28 GMT 39.971691 -75.305153 7,700 257 254 1664
2020-05-28 15:11:25 GMT 39.971691 -75.305153 7,700 257 254 1664
2020-05-28 15:11:22 GMT 39.972542 -75.300560 7,500 257 253 1664
2020-05-28 15:11:19 GMT 39.973289 -75.296051 7,200 257 253 1664
2020-05-28 15:11:16 GMT 39.974041 -75.291603 7,200 257 253 1664
2020-05-28 15:11:13 GMT 39.974918 -75.287148 7,200 258 252 1664
2020-05-28 15:11:10 GMT 39.975769 -75.282669 6,900 259 251 1664
2020-05-28 15:11:07 GMT 39.976440 -75.278221 6,900 259 251 1664
2020-05-28 15:11:04 GMT 39.977119 -75.273857 6,900 259 254 1664
2020-05-28 15:11:01 GMT 39.978142 -75.269310 6,700 260 250 1664
2020-05-28 15:10:58 GMT 39.978680 -75.264847 6,700 260 250 1664
2020-05-28 15:10:55 GMT 39.979160 -75.260239 6,400 260 247 1664
2020-05-28 15:10:52 GMT 39.979530 -75.255836 6,400 261 247 2304
2020-05-28 15:10:49 GMT 39.980122 -75.251442 6,400 261 247 2304
2020-05-28 15:10:46 GMT 39.980900 -75.246841 6,100 263 240 2304
2020-05-28 15:10:43 GMT 39.981312 -75.242233 6,100 263 240 2304
2020-05-28 15:10:40 GMT 39.981659 -75.237999 6,100 265 236 2304
2020-05-28 15:10:37 GMT 39.982201 -75.233917 5,900 268 240 2304
2020-05-28 15:10:34 GMT 39.982349 -75.229591 5,900 268 240 2304
2020-05-28 15:10:31 GMT 39.982399 -75.225548 5,600 269 249 2304
2020-05-28 15:10:28 GMT 39.982430 -75.216911 5,600 272 257 2304
2020-05-28 15:10:25 GMT 39.982430 -75.216911 5,600 272 257 2304
2020-05-28 15:10:22 GMT 39.982410 -75.212929 5,200 277 268 2304
2020-05-28 15:10:19 GMT 39.982342 -75.208450 5,200 284 267 2304
2020-05-28 15:10:16 GMT 39.981560 -75.199089 4,800 294 264 2304
2020-05-28 15:10:13 GMT 39.981560 -75.199089 4,800 294 264 2304
2020-05-28 15:10:10 GMT 39.981091 -75.194221 4,800 305 259 2304
2020-05-28 15:10:07 GMT 39.979279 -75.190178 4,800 305 259 2304
2020-05-28 15:10:04 GMT 39.978100 -75.185532 4,600 317 257 2304
2020-05-28 15:10:01 GMT 39.976700 -75.179649 4,600 317 257 2304
2020-05-28 15:09:58 GMT 39.973721 -75.177261 4,200 331 252 2304
2020-05-28 15:09:55 GMT 39.970940 -75.174057 4,200 331 252 2304
2020-05-28 15:09:52 GMT 39.967941 -75.171333 4,200 331 252 1376
2020-05-28 15:09:49 GMT 39.964828 -75.169258 4,000 332 251 1376
2020-05-28 15:09:46 GMT 39.961632 -75.166931 3,800 332 249 1376
2020-05-28 15:09:43 GMT 39.958309 -75.165421 3,700 330 243 1376
2020-05-28 15:09:40 GMT 39.955341 -75.163330 3,700 330 243 1376
2020-05-28 15:09:37 GMT 39.952110 -75.161873 3,300 328 247 1376
2020-05-28 15:09:34 GMT 39.949390 -75.160713 3,300 328 247 1376
2020-05-28 15:09:31 GMT 39.946308 -75.158089 3,300 328 265 1376
2020-05-28 15:09:28 GMT 39.943531 -75.155388 2,900 334 272 1376
2020-05-28 15:09:25 GMT 39.940220 -75.153038 2,900 336 271 1376
2020-05-28 15:09:22 GMT 39.936798 -75.151031 2,900 338 276 1376
2020-05-28 15:09:19 GMT 39.933281 -75.149269 2,800 346 260 1376
2020-05-28 15:09:16 GMT 39.929821 -75.148087 2,800 350 259 1376
2020-05-28 15:09:13 GMT 39.926338 -75.147346 2,500 358 266 1376
2020-05-28 15:09:10 GMT 39.922722 -75.147141 2,500 5 268 1376
2020-05-28 15:09:07 GMT 39.918968 -75.147430 2,500 9 257 1376
2020-05-28 15:09:04 GMT 39.915539 -75.148064 2,100 15 260 1376
2020-05-28 15:09:01 GMT 39.908791 -75.151047 2,100 26 255 1376
2020-05-28 15:08:58 GMT 39.908791 -75.151047 2,000 31 252 1376
2020-05-28 15:08:55 GMT 39.905750 -75.153152 2,000 34 255 1376
2020-05-28 15:08:52 GMT 39.902821 -75.155609 2,000 40 248 224
2020-05-28 15:08:49 GMT 39.900181 -75.158569 1,900 53 232 224
2020-05-28 15:08:46 GMT 39.898079 -75.161819 1,825 56 230 224
2020-05-28 15:08:43 GMT 39.896389 -75.165230 1,600 61 226 224
2020-05-28 15:08:40 GMT 39.894901 -75.168892 1,600 61 219 224
2020-05-28 15:08:37 GMT 39.893501 -75.172318 1,600 60 218 224
2020-05-28 15:08:34 GMT 39.892010 -75.175728 1,600 60 216 224
2020-05-28 15:08:31 GMT 39.890530 -75.179169 1,500 60 195 224
2020-05-28 15:08:28 GMT 39.889198 -75.182198 1,450 61 210 224
2020-05-28 15:08:25 GMT 39.887878 -75.185493 1,400 61 199 416
2020-05-28 15:08:22 GMT 39.886570 -75.188728 1,375 60 185 2976
2020-05-28 15:08:19 GMT 39.885281 -75.191650 1,350 61 183 2976
2020-05-28 15:08:16 GMT 39.884090 -75.194588 1,200 61 179 2976
2020-05-28 15:08:13 GMT 39.881840 -75.200203 1,075 61 176 2528
2020-05-28 15:08:10 GMT 39.881840 -75.200203 1,075 60 174 2528
2020-05-28 15:08:07 GMT 39.880711 -75.203033 1,025 61 172 2528
2020-05-28 15:08:04 GMT 39.879589 -75.205688 925 63 172 2528
2020-05-28 15:08:01 GMT 39.878578 -75.208511 750 68 169 2528
2020-05-28 15:07:58 GMT 39.877682 -75.211372 600 73 162 2528
2020-05-28 15:07:55 GMT 39.877022 -75.214104 550 73 162 2528
2020-05-28 15:07:52 GMT 39.876369 -75.216911 500 74 163 0
2020-05-28 15:07:49 GMT 39.875832 -75.219749 300 74 157 0
2020-05-28 15:07:46 GMT 39.875259 -75.222458 250 76 163 0
2020-05-28 15:07:43 GMT 39.874729 -75.225273 150 75 160 0
2020-05-28 15:07:40 GMT 39.874191 -75.228043 -75 76 156 0
2020-05-28 15:07:37 GMT 39.873699 -75.230743 -75 75 155 0
2020-05-28 15:07:34 GMT 39.873169 -75.233421 -100 75 150 0
2020-05-28 15:07:31 GMT 39.872639 -75.236038 -200 74 152 0
2020-05-28 15:07:28 GMT 39.872089 -75.238632 -200 75 148 -64
2020-05-28 15:07:25 GMT 39.871590 -75.241142 -150 75 134 -64
2020-05-28 15:07:22 GMT 39.871101 -75.243408 -150 76 123
2020-05-28 15:07:19 GMT 39.870708 -75.245613 -150 75 112
2020-05-28 15:07:16 GMT 39.870319 -75.247520 0 75 105
2020-05-28 15:07:13 GMT 39.869968 -75.249268 0 76 98
2020-05-28 15:07:10 GMT 39.869411 -75.252113 0 74 73
2020-05-28 15:07:07 GMT 39.869411 -75.252113 0 74 63
2020-05-28 15:07:04 GMT 39.869160 -75.253166 0 77 43
2020-05-28 15:07:01 GMT 39.869030 -75.254044 0 74 31
2020-05-28 15:06:58 GMT 39.868900 -75.254608 0 72 21
2020-05-28 15:06:55 GMT 39.868790 -75.255013 0 75 0
2020-05-28 15:06:52 GMT 39.868790 -75.255013 0 75 0
2020-05-28 15:06:49 GMT 39.868820 -75.255028 0 75 0
2020-05-28 15:06:46 GMT 39.868809 -75.255043 0 75 0
2020-05-28 15:06:43 GMT 39.868820 -75.255043 0 75 0
2020-05-28 15:06:39 GMT 39.868809 -75.255043 0 75 0
2020-05-28 15:06:36 GMT 39.868832 -75.255043 0 75 0
2020-05-28 15:06:32 GMT 39.868809 -75.255043 0 75 0
2020-05-28 15:06:29 GMT 39.868809 -75.255043 0 75 0
2020-05-28 15:06:17 GMT 39.868820 -75.255043 0 75 0
2020-05-28 15:06:09 GMT 39.868809 -75.255028 0 75 0
2020-05-28 15:06:06 GMT 39.868832 -75.255043 0 75 0
2020-05-28 15:06:00 GMT 39.868809 -75.255043 0 75 0
2020-05-28 15:05:57 GMT 39.868809 -75.255043 0 75 0
2020-05-28 15:05:53 GMT 39.868820 -75.255043 0 75 0
2020-05-28 15:05:50 GMT 39.868839 -75.255051 0 75 0
2020-05-28 15:05:47 GMT 39.868820 -75.255043 0 76 1
2020-05-28 15:05:44 GMT 39.868809 -75.255028 0 76 0
2020-05-28 15:05:41 GMT 39.868809 -75.255043 0 76 1
2020-05-28 15:05:38 GMT 39.868790 -75.255013 0 77 1
2020-05-28 15:05:35 GMT 39.868839 -75.255074 0 71 4
2020-05-28 15:05:32 GMT 39.868839 -75.255074 0 72 6
2020-05-28 15:05:29 GMT 39.868801 -75.255188 0 84 7
2020-05-28 15:05:26 GMT 39.868778 -75.255302 0 101 7
2020-05-28 15:05:23 GMT 39.868820 -75.255432 0 122 7
2020-05-28 15:05:20 GMT 39.868870 -75.255508 0 159 11
2020-05-28 15:05:17 GMT 39.869011 -75.255592 0 161 10
2020-05-28 15:05:14 GMT 39.869110 -75.255638 0 168 7
2020-05-28 15:05:11 GMT 39.869270 -75.255692 0 168 7
2020-05-28 15:05:08 GMT 39.869480 -75.255737 0 173 7
2020-05-28 15:05:05 GMT 39.869480 -75.255737 0 185 8
2020-05-28 15:05:02 GMT 39.869598 -75.255760 0 201 7
2020-05-28 15:04:59 GMT 39.869690 -75.255730 0 224 6
2020-05-28 15:04:56 GMT 39.869770 -75.255661 0 231 6
2020-05-28 15:04:53 GMT 39.869820 -75.255547 0 243 5
2020-05-28 15:04:50 GMT 39.869862 -75.255463 0 250 5
2020-05-28 15:04:47 GMT 39.869888 -75.255348 0 251 1
2020-05-28 15:04:44 GMT 39.869930 -75.255310 0 251 0
2020-05-28 15:04:41 GMT 39.869919 -75.255310 0 252 0
2020-05-28 15:04:38 GMT 39.869930 -75.255310 0 247 0
2020-05-28 15:04:35 GMT 39.869900 -75.255287 0 247 0
2020-05-28 15:04:32 GMT 39.869900 -75.255280 0 247 0
2020-05-28 15:04:29 GMT 39.869900 -75.255257 0 249 2
2020-05-28 15:04:26 GMT 39.869900 -75.255257 0 248 3
2020-05-28 15:04:23 GMT 39.869900 -75.255211 0 249 3
2020-05-28 15:04:20 GMT 39.869930 -75.255150 0 249 0
2020-05-28 15:04:17 GMT 39.869919 -75.255119 0 250 1
2020-05-28 15:04:14 GMT 39.869930 -75.255119 0 251 1
2020-05-28 15:04:11 GMT 39.869980 -75.255096 0 252 0
2020-05-28 15:04:07 GMT 39.869961 -75.255112 0 252 0
2020-05-28 15:04:04 GMT 39.869949 -75.255119 0 252 0
2020-05-28 15:04:01 GMT 39.869942 -75.255112 0 252 0
2020-05-28 15:03:58 GMT 39.869968 -75.255127 0 255 0
2020-05-28 15:03:54 GMT 39.869961 -75.255119 0 256 0
2020-05-28 15:03:51 GMT 39.869968 -75.255119 0 257 0
2020-05-28 15:03:48 GMT 39.869949 -75.255089 0 257 0
2020-05-28 15:03:45 GMT 39.869961 -75.255096 0 257 0
2020-05-28 15:03:41 GMT 39.869961 -75.255112 0 258 0
2020-05-28 15:03:38 GMT 39.869968 -75.255096 0 258 0
2020-05-28 15:03:35 GMT 39.869942 -75.255119 0 260 1
2020-05-28 15:03:32 GMT 39.869968 -75.255127 0 261 0
2020-05-28 15:03:29 GMT 39.869991 -75.255119 0 261 0
2020-05-28 15:03:26 GMT 39.869949 -75.255081 0 261 0
2020-05-28 15:03:23 GMT 39.869949 -75.255119 0 261 0
2020-05-28 15:03:20 GMT 39.869961 -75.255089 0 261 0
2020-05-28 15:03:17 GMT 39.869961 -75.255089 0 261 0
2020-05-28 15:03:14 GMT 39.869961 -75.255096 0 261 0
2020-05-28 15:03:11 GMT 39.869961 -75.255112 0 261 1
2020-05-28 15:03:08 GMT 39.869942 -75.255112 0 259 1
2020-05-28 15:03:05 GMT 39.869968 -75.255096 0 259 0
2020-05-28 15:03:02 GMT 39.869980 -75.255119 0 259 1
2020-05-28 15:02:59 GMT 39.869919 -75.255096 0 259 0
2020-05-28 15:02:56 GMT 39.869900 -75.255051 0 260 1
2020-05-28 15:02:53 GMT 39.869942 -75.255127 0 263 3
2020-05-28 15:02:50 GMT 39.869961 -75.255089 0 263 0
2020-05-28 15:02:47 GMT 39.869961 -75.255112 0 263 0
2020-05-28 15:02:44 GMT 39.869949 -75.255119 0 258 0
2020-05-28 15:02:41 GMT 39.869991 -75.255142 0 258 1
2020-05-28 15:02:38 GMT 39.869919 -75.255081 0 258 0
2020-05-28 15:02:34 GMT 39.869919 -75.255089 0 261 1
2020-05-28 15:02:31 GMT 39.869949 -75.255119 0 268 0
2020-05-28 15:02:27 GMT 39.869961 -75.255119 0 271 0
2020-05-28 15:02:23 GMT 39.869961 -75.255127 0 271 0
2020-05-28 15:02:20 GMT 39.869961 -75.255119 0 271 0
2020-05-28 15:02:17 GMT 39.869968 -75.255119 0 271 2
2020-05-28 15:02:14 GMT 39.869949 -75.255119 0 271 0
2020-05-28 15:02:11 GMT 39.869949 -75.255142 0 264 2
2020-05-28 15:02:08 GMT 39.869942 -75.255096 0 263 4
2020-05-28 15:02:05 GMT 39.869930 -75.255058 0 259 3
2020-05-28 15:02:02 GMT 39.869961 -75.255028 0 258 4
2020-05-28 15:01:59 GMT 39.869968 -75.254951 0 260 0
2020-05-28 15:01:56 GMT 39.869991 -75.254921 0 260 0
2020-05-28 15:01:53 GMT 39.869980 -75.254913 0 260 1
2020-05-28 15:01:50 GMT 39.869991 -75.254921 0 251 3
2020-05-28 15:01:47 GMT 39.869980 -75.254852 0 231 5
2020-05-28 15:01:44 GMT 39.869991 -75.254784 0 211 3
2020-05-28 15:01:41 GMT 39.870022 -75.254662 0 126 4
2020-05-28 15:01:38 GMT 39.870022 -75.254662 0 112 3
2020-05-28 15:01:35 GMT 39.870029 -75.254601 0 104 3
2020-05-28 15:01:32 GMT 39.870041 -75.254570 0 98 2
2020-05-28 15:01:29 GMT 39.869999 -75.254501 0 74 4
2020-05-28 15:01:26 GMT 39.870090 -75.254440 0 74 4
2020-05-28 15:01:23 GMT 39.870090 -75.254417 0 74 0
2020-05-28 15:01:20 GMT 39.870098 -75.254417 0 74 0
2020-05-28 15:01:17 GMT 39.870079 -75.254387 0 74 0
2020-05-28 15:01:14 GMT 39.870071 -75.254387 0 74 0
2020-05-28 15:01:10 GMT 39.870090 -75.254379 0 74 0
2020-05-28 15:01:07 GMT 39.870079 -75.254379 0 74 0
2020-05-28 15:01:04 GMT 39.870079 -75.254387 0 74 0
2020-05-28 15:01:01 GMT 39.870060 -75.254402 0 75 0
2020-05-28 15:00:58 GMT 39.870079 -75.254349 0 143 2
2020-05-28 15:00:55 GMT 39.870029 -75.254379 0 144 1
2020-05-28 15:00:52 GMT 39.870079 -75.254356 0 111 1
2020-05-28 15:00:49 GMT 39.869991 -75.254349 0 201 5
2020-05-28 15:00:46 GMT 39.870079 -75.254387 0 226 4
2020-05-28 15:00:43 GMT 39.870079 -75.254387 0 219 4
2020-05-28 15:00:40 GMT 39.869999 -75.254372 0 223 2
2020-05-28 15:00:37 GMT 39.870010 -75.254372 0 221 3
2020-05-28 15:00:34 GMT 39.870060 -75.254318 0 253 4
2020-05-28 15:00:31 GMT 39.870129 -75.254311 0 257 3
2020-05-28 15:00:28 GMT 39.870121 -75.254272 0 261 3
2020-05-28 15:00:25 GMT 39.870121 -75.254219 0 258 4
2020-05-28 15:00:22 GMT 39.870129 -75.254143 0 249 5
2020-05-28 15:00:19 GMT 39.870178 -75.253983 0 258 6
2020-05-28 15:00:16 GMT 39.870178 -75.253983 0 259 5
2020-05-28 15:00:13 GMT 39.870178 -75.253899 0 254 7
2020-05-28 15:00:10 GMT 39.870201 -75.253792 0 251 7
2020-05-28 15:00:07 GMT 39.870258 -75.253548 0 264 7
2020-05-28 15:00:04 GMT 39.870258 -75.253548 0 249 7
2020-05-28 15:00:01 GMT 39.870251 -75.253410 0 244 7
2020-05-28 14:59:58 GMT 39.870331 -75.253304 0 256 6
2020-05-28 14:59:55 GMT 39.870331 -75.253181 0 255 8
2020-05-28 14:59:52 GMT 39.870331 -75.253052 0 246 6
2020-05-28 14:59:49 GMT 39.870380 -75.252922 0 258 6
2020-05-28 14:59:46 GMT 39.870380 -75.252792 0 254 7
2020-05-28 14:59:43 GMT 39.870430 -75.252701 0 255 5
2020-05-28 14:59:40 GMT 39.870468 -75.252480 0 250 1
2020-05-28 14:59:37 GMT 39.870468 -75.252480 0 250 1
2020-05-28 14:59:34 GMT 39.870480 -75.252449 0 249 0
2020-05-28 14:59:30 GMT 39.870468 -75.252403 0 249 0
2020-05-28 14:59:27 GMT 39.870480 -75.252411 0 249 0
2020-05-28 14:59:24 GMT 39.870491 -75.252411 0 256 0
2020-05-28 14:59:21 GMT 39.870468 -75.252411 0 256 0
2020-05-28 14:59:18 GMT 39.870468 -75.252419 0 260 0
2020-05-28 14:59:12 GMT 39.870480 -75.252434 0 260 0
2020-05-28 14:59:09 GMT 39.870491 -75.252434 0 262 0
2020-05-28 14:59:05 GMT 39.870491 -75.252419 0 265 0
2020-05-28 14:59:01 GMT 39.870491 -75.252434 0 265 0
2020-05-28 14:58:58 GMT 39.870491 -75.252441 0 265 1
2020-05-28 14:58:55 GMT 39.870468 -75.252434 0 258 0
2020-05-28 14:58:52 GMT 39.870461 -75.252411 0 260 1
2020-05-28 14:58:49 GMT 39.870461 -75.252411 0 268 2
2020-05-28 14:58:46 GMT 39.870491 -75.252441 0 275 1
2020-05-28 14:58:43 GMT 39.870510 -75.252457 0 273 3
2020-05-28 14:58:40 GMT 39.870480 -75.252411 0 258 4
2020-05-28 14:58:37 GMT 39.870499 -75.252342 0 266 5
2020-05-28 14:58:34 GMT 39.870499 -75.252258 0 254 7
2020-05-28 14:58:31 GMT 39.870522 -75.252151 0 259 7
2020-05-28 14:58:28 GMT 39.870541 -75.252037 0 255 9
2020-05-28 14:58:25 GMT 39.870571 -75.251846 0 248 8
2020-05-28 14:58:22 GMT 39.870670 -75.251549 0 254 10
2020-05-28 14:58:19 GMT 39.870670 -75.251549 0 256 9
2020-05-28 14:58:16 GMT 39.870682 -75.251389 0 252 9
2020-05-28 14:58:13 GMT 39.870720 -75.251244 0 257 10
2020-05-28 14:58:10 GMT 39.870750 -75.251053 0 255 12
2020-05-28 14:58:07 GMT 39.870781 -75.250839 0 250 12
2020-05-28 14:58:04 GMT 39.870838 -75.250618 0 253 13
2020-05-28 14:58:01 GMT 39.870911 -75.250381 0 256 12
2020-05-28 14:57:58 GMT 39.870941 -75.250160 0 253 14
2020-05-28 14:57:55 GMT 39.871010 -75.249634 0 258 14
2020-05-28 14:57:52 GMT 39.871010 -75.249634 0 244 13
2020-05-28 14:57:49 GMT 39.871090 -75.249413 0 256 14
2020-05-28 14:57:46 GMT 39.871140 -75.249153 0 255 13
2020-05-28 14:57:43 GMT 39.871189 -75.248917 0 257 15
2020-05-28 14:57:40 GMT 39.871269 -75.248466 0 253 13
2020-05-28 14:57:37 GMT 39.871269 -75.248466 0 252 14
2020-05-28 14:57:34 GMT 39.871319 -75.248238 0 258 14
2020-05-28 14:57:31 GMT 39.871361 -75.247978 0 261 15
2020-05-28 14:57:28 GMT 39.871380 -75.247726 0 253 15
2020-05-28 14:57:25 GMT 39.871471 -75.247467 0 258 16
2020-05-28 14:57:22 GMT 39.871529 -75.247177 0 255 15
2020-05-28 14:57:19 GMT 39.871552 -75.246948 0 252 16
2020-05-28 14:57:16 GMT 39.871620 -75.246674 0 253 16
2020-05-28 14:57:13 GMT 39.871658 -75.246391 0 254 16
2020-05-28 14:57:10 GMT 39.871731 -75.246117 0 254 16
2020-05-28 14:57:07 GMT 39.871769 -75.245842 0 253 16
2020-05-28 14:57:04 GMT 39.871849 -75.245560 0 253 17
2020-05-28 14:57:01 GMT 39.871899 -75.245262 0 254 16
2020-05-28 14:56:58 GMT 39.871960 -75.244980 0 255 16
2020-05-28 14:56:55 GMT 39.872009 -75.244690 0 255 16
2020-05-28 14:56:52 GMT 39.872070 -75.244423 0 256 17
2020-05-28 14:56:49 GMT 39.872162 -75.243843 0 254 15
2020-05-28 14:56:46 GMT 39.872162 -75.243843 0 253 15
2020-05-28 14:56:43 GMT 39.872238 -75.243599 0 256 14
2020-05-28 14:56:40 GMT 39.872280 -75.243362 0 257 14
2020-05-28 14:56:37 GMT 39.872330 -75.243111 0 256 13
2020-05-28 14:56:34 GMT 39.872360 -75.242867 0 264 14
2020-05-28 14:56:31 GMT 39.872410 -75.242638 0 260 11
2020-05-28 14:56:28 GMT 39.872452 -75.242462 0 245 14
2020-05-28 14:56:25 GMT 39.872501 -75.242210 0 225 12
2020-05-28 14:56:22 GMT 39.872601 -75.242043 0 210 12
2020-05-28 14:56:19 GMT 39.872749 -75.241928 0 199 10
2020-05-28 14:56:16 GMT 39.872860 -75.241890 0 192 13
2020-05-28 14:56:13 GMT 39.873070 -75.241890 0 208 11
2020-05-28 14:56:10 GMT 39.873230 -75.241837 0 230 11
2020-05-28 14:56:07 GMT 39.873360 -75.241432 0 251 13
2020-05-28 14:56:04 GMT 39.873360 -75.241432 0 254 14
2020-05-28 14:56:01 GMT 39.873421 -75.241257 0 254 17
2020-05-28 14:55:58 GMT 39.873501 -75.240959 0 249 17
2020-05-28 14:55:55 GMT 39.873569 -75.240356 0 258 16
2020-05-28 14:55:52 GMT 39.873569 -75.240356 0 257 14
2020-05-28 14:55:49 GMT 39.873638 -75.240097 0 257 17
2020-05-28 14:55:46 GMT 39.873699 -75.239799 0 250 18
2020-05-28 14:55:43 GMT 39.873749 -75.239471 0 251 16
2020-05-28 14:55:40 GMT 39.873821 -75.239189 0 248 17
2020-05-28 14:55:37 GMT 39.873920 -75.238937 0 260 20
2020-05-28 14:55:34 GMT 39.873959 -75.238602 0 253 20
2020-05-28 14:55:31 GMT 39.874031 -75.238251 0 251 18
2020-05-28 14:55:28 GMT 39.874168 -75.237640 0 242 17
2020-05-28 14:55:25 GMT 39.874168 -75.237640 0 237 18
2020-05-28 14:55:22 GMT 39.874290 -75.237373 0 231 16
2020-05-28 14:55:19 GMT 39.874439 -75.237122 0 226 19
2020-05-28 14:55:16 GMT 39.874619 -75.236870 0 226 19
2020-05-28 14:55:13 GMT 39.874809 -75.236618 0 223 16
2020-05-28 14:55:10 GMT 39.874981 -75.236412 0 217 18
2020-05-28 14:55:07 GMT 39.875172 -75.236191 0 217 16
2020-05-28 14:55:04 GMT 39.875332 -75.236023 0 216 15
2020-05-28 14:55:01 GMT 39.875488 -75.235847 0 197 19
2020-05-28 14:54:58 GMT 39.875740 -75.235748 0 201 15
2020-05-28 14:54:55 GMT 39.875931 -75.235672 0 201 17
2020-05-28 14:54:52 GMT 39.876179 -75.235542 0 200 19
2020-05-28 14:54:49 GMT 39.876369 -75.235443 0 201 15
2020-05-28 14:54:46 GMT 39.876572 -75.235382 0 201 15
2020-05-28 14:54:43 GMT 39.876770 -75.235291 0 200 14
2020-05-28 14:54:40 GMT 39.876961 -75.235207 0 199 14
2020-05-28 14:54:37 GMT 39.877121 -75.235130 0 203 14
2020-05-28 14:54:34 GMT 39.877312 -75.235008 0 198 12
2020-05-28 14:54:31 GMT 39.877480 -75.234962 0 201 14
2020-05-28 14:54:28 GMT 39.877670 -75.234871 0 200 15
2020-05-28 14:54:25 GMT 39.877838 -75.234779 0 196 13
2020-05-28 14:54:22 GMT 39.878029 -75.234711 0 197 17
2020-05-28 14:54:19 GMT 39.878422 -75.234573 0 203 13
2020-05-28 14:54:16 GMT 39.878422 -75.234573 0 202 13
2020-05-28 14:54:13 GMT 39.878578 -75.234482 0 198 12
2020-05-28 14:54:10 GMT 39.878738 -75.234413 0 198 12
2020-05-28 14:54:07 GMT 39.878899 -75.234329 0 188 10
2020-05-28 14:54:04 GMT 39.879082 -75.234322 0 170 9
2020-05-28 14:54:01 GMT 39.879238 -75.234337 0 167 9
2020-05-28 14:53:58 GMT 39.879360 -75.234367 0 165 8
2020-05-28 14:53:55 GMT 39.879520 -75.234421 0 169 5
2020-05-28 14:53:52 GMT 39.879520 -75.234421 0 166 4
2020-05-28 14:53:49 GMT 39.879601 -75.234413 0 147 2
2020-05-28 14:53:46 GMT 39.879631 -75.234451 0 155 2
2020-05-28 14:53:43 GMT 39.879620 -75.234451 0 152 3
2020-05-28 14:53:40 GMT 39.879700 -75.234482 0 163 6
2020-05-28 14:53:37 GMT 39.879768 -75.234512 0 164 6
2020-05-28 14:53:34 GMT 39.879860 -75.234528 0 157 9
2020-05-28 14:53:31 GMT 39.879978 -75.234589 0 162 11
2020-05-28 14:53:28 GMT 39.880211 -75.234741 0 160 9
2020-05-28 14:53:25 GMT 39.880211 -75.234741 0 158 12
2020-05-28 14:53:22 GMT 39.880390 -75.234802 0 156 10
2020-05-28 14:53:19 GMT 39.880508 -75.234863 0 166 11
2020-05-28 14:53:16 GMT 39.880638 -75.234962 0 166 12
2020-05-28 14:53:13 GMT 39.880840 -75.235001 0 158 9
2020-05-28 14:53:10 GMT 39.881050 -75.235138 0 157 12
2020-05-28 14:53:07 GMT 39.881050 -75.235138 0 148 8
2020-05-28 14:53:04 GMT 39.881191 -75.235191 0 157 9
2020-05-28 14:53:01 GMT 39.881290 -75.235252 0 156 10
2020-05-28 14:52:58 GMT 39.881538 -75.235420 0 165 10
2020-05-28 14:52:55 GMT 39.881538 -75.235420 0 166 11
2020-05-28 14:52:52 GMT 39.881672 -75.235458 0 160 11
2020-05-28 14:52:49 GMT 39.881809 -75.235474 0 147 8
2020-05-28 14:52:46 GMT 39.881931 -75.235573 0 157 9
2020-05-28 14:52:43 GMT 39.882030 -75.235657 0 163 9
2020-05-28 14:52:40 GMT 39.882141 -75.235687 0 161 8
2020-05-28 14:52:37 GMT 39.882259 -75.235718 0 143 5
2020-05-28 14:52:34 GMT 39.882320 -75.235779 0 156 5
2020-05-28 14:52:31 GMT 39.882389 -75.235809 0 152 4
2020-05-28 14:52:28 GMT 39.882450 -75.235809 0 156 4
2020-05-28 14:52:25 GMT 39.882481 -75.235878 0 171 4
2020-05-28 14:52:22 GMT 39.882530 -75.235870 0 159 2
2020-05-28 14:52:19 GMT 39.882549 -75.235878 0 156 2
2020-05-28 14:52:16 GMT 39.882580 -75.235924 0 157 2
2020-05-28 14:52:13 GMT 39.882641 -75.235977 0 156 1
2020-05-28 14:52:10 GMT 39.882648 -75.235970 0 156 0
2020-05-28 14:52:07 GMT 39.882660 -75.235977 0 157 1
2020-05-28 14:52:04 GMT 39.882679 -75.235977 0 157 0
2020-05-28 14:52:01 GMT 39.882702 -75.235977 0 157 0
2020-05-28 14:51:58 GMT 39.882710 -75.236000 0 157 0
2020-05-28 14:51:55 GMT 39.882710 -75.235992 0 158 1
2020-05-28 14:51:52 GMT 39.882729 -75.235931 0 164 2
2020-05-28 14:51:49 GMT 39.882710 -75.235977 0 163 0
2020-05-28 14:51:46 GMT 39.882702 -75.235970 0 161 0
2020-05-28 14:51:43 GMT 39.882721 -75.235977 0 161 0
2020-05-28 14:51:40 GMT 39.882710 -75.235947 0 161 0
2020-05-28 14:51:37 GMT 39.882710 -75.235947 0 161 0
2020-05-28 14:51:34 GMT 39.882729 -75.235947 0 161 1
2020-05-28 14:51:31 GMT 39.882690 -75.235992 0 161 1
2020-05-28 14:51:28 GMT 39.882679 -75.235977 0 161 1
2020-05-28 14:51:25 GMT 39.882679 -75.235962 0 159 2
2020-05-28 14:51:22 GMT 39.882729 -75.235947 0 159 0
2020-05-28 14:51:19 GMT 39.882729 -75.235970 0 159 0
2020-05-28 14:51:16 GMT 39.882690 -75.236008 0 159 1
2020-05-28 14:51:13 GMT 39.882690 -75.236008 0 154 2
2020-05-28 14:51:10 GMT 39.882690 -75.236000 0 153 2
2020-05-28 14:51:07 GMT 39.882710 -75.235939 0 153 0
2020-05-28 14:51:04 GMT 39.882710 -75.235947 0 153 0
2020-05-28 14:51:01 GMT 39.882721 -75.235962 0 153 1
2020-05-28 14:50:58 GMT 39.882721 -75.235962 0 153 0
2020-05-28 14:50:55 GMT 39.882740 -75.235992 0 151 1
2020-05-28 14:50:52 GMT 39.882710 -75.235924 0 151 1
2020-05-28 14:50:49 GMT 39.882721 -75.235931 0 155 2
2020-05-28 14:50:46 GMT 39.882721 -75.235931 0 156 2
2020-05-28 14:50:43 GMT 39.882710 -75.235924 0 160 2
2020-05-28 14:50:40 GMT 39.882702 -75.235962 0 160 1
2020-05-28 14:50:37 GMT 39.882679 -75.236000 0 158 0
2020-05-28 14:50:34 GMT 39.882710 -75.235962 0 155 1
2020-05-28 14:50:30 GMT 39.882702 -75.235977 0 159 0
2020-05-28 14:50:27 GMT 39.882702 -75.236008 0 158 0
2020-05-28 14:50:24 GMT 39.882710 -75.235977 0 158 0
2020-05-28 14:50:21 GMT 39.882702 -75.235992 0 158 0
2020-05-28 14:50:18 GMT 39.882702 -75.236000 0 158 0
2020-05-28 14:50:15 GMT 39.882690 -75.235992 0 161 1
2020-05-28 14:50:12 GMT 39.882690 -75.235977 0 165 3
2020-05-28 14:50:09 GMT 39.882690 -75.235977 0 157 3
2020-05-28 14:50:06 GMT 39.882740 -75.235977 0 153 4
2020-05-28 14:50:03 GMT 39.882801 -75.236008 0 163 4
2020-05-28 14:50:00 GMT 39.882832 -75.236038 0 158 7
2020-05-28 14:49:57 GMT 39.882919 -75.236038 0 140 8
2020-05-28 14:49:54 GMT 39.883049 -75.236191 0 141 9
2020-05-28 14:49:51 GMT 39.883049 -75.236191 0 109 12
2020-05-28 14:49:48 GMT 39.883190 -75.236252 0 87 12
2020-05-28 14:49:45 GMT 39.883221 -75.236488 0 84 11
2020-05-28 14:49:42 GMT 39.883202 -75.236618 0 83 11

Making use of Plane Finder data

You are free to use the raw flight data, aircraft information and images provided in this report for your own purposes provided the data is correctly attributed to Plane Finder. We ask that you please credit Plane Finder and link to planefinder.net in close proximity to the content.

Optionally one of the following logos (no smaller then 150x24px) can be used and must link to planefinder.net

Embedding the Plane Finder map

You are welcome to embed the Plane Finder playback map on your website to offer visitors a more interactive experience. We suggest using the following HTML code:

<iframe src="//planefinder.net/data/report/AA4799-N672AE-7700-squawk-2020-05-28/map" width="800" height="600" seamless="seamless"></iframe>

Where our data comes from

Plane Finder has a global network of data feeds and antenna radars that receive data broadcast directly from aircraft. The primary technologies used are ADS-B and MLAT. We also show feeds from the FAA and a FLARM glider feed.

Click here to find out more about the Plane Finder network.

How we collect our data